Time,TemperatureF,DewpointF,PressureIn,WindDirection,WindDirectionDegrees,WindSpeedMPH,WindSpeedGustMPH,Humidity,HourlyPrecipIn,Conditions,Clouds,dailyrainin,SoftwareType,DateUTC
2013-08-20 00:13:00,68.0,65.0,-100.00,SE,131,5.0,8.0,92,0.00,,,0.00,,2013-08-20 04:13:00,
2013-08-20 00:23:00,67.0,65.0,-100.00,SE,128,5.0,7.0,93,0.00,,,0.00,,2013-08-20 04:23:00,
2013-08-20 00:43:00,67.0,65.0,-100.00,SE,137,5.0,8.0,92,0.00,,,0.00,,2013-08-20 04:43:00,
2013-08-20 00:54:00,67.0,65.0,-100.00,SE,143,5.0,8.0,93,0.00,,,0.00,,2013-08-20 04:54:00,
2013-08-20 01:12:00,67.0,65.0,-100.00,SE,130,4.0,6.0,93,0.00,,,0.00,,2013-08-20 05:12:00,
2013-08-20 01:22:00,67.0,65.0,-100.00,SE,128,3.0,6.0,93,0.00,,,0.00,,2013-08-20 05:22:00,
2013-08-20 01:43:00,66.0,65.0,-100.00,ESE,110,2.0,4.0,94,0.00,,,0.00,,2013-08-20 05:43:00,
2013-08-20 01:52:00,66.0,64.0,-100.00,ESE,106,0.0,0.0,95,0.00,,,0.00,,2013-08-20 05:52:00,
2013-08-20 02:11:00,65.0,64.0,-100.00,ESE,103,0.0,1.0,95,0.00,,,0.00,,2013-08-20 06:11:00,
2013-08-20 02:22:00,65.0,64.0,-100.00,NE,51,0.0,2.0,96,0.00,,,0.00,,2013-08-20 06:22:00,
2013-08-20 02:42:00,65.0,63.0,-100.00,NNE,32,2.0,4.0,96,0.00,,,0.00,,2013-08-20 06:42:00,
2013-08-20 02:52:00,65.0,63.0,-100.00,NW,320,3.0,5.0,96,0.00,,,0.00,,2013-08-20 06:52:00,
2013-08-20 03:11:00,64.0,63.0,-100.00,NW,319,4.0,5.0,96,0.00,,,0.00,,2013-08-20 07:11:00,
2013-08-20 03:22:00,64.0,63.0,-100.00,NW,322,4.0,6.0,96,0.00,,,0.00,,2013-08-20 07:22:00,
2013-08-20 03:42:00,64.0,63.0,-100.00,NW,323,3.0,6.0,96,0.00,,,0.00,,2013-08-20 07:42:00,
2013-08-20 03:52:00,64.0,63.0,-100.00,NW,319,3.0,6.0,96,0.00,,,0.00,,2013-08-20 07:52:00,
2013-08-20 04:11:00,65.0,63.0,-100.00,NW,315,5.0,8.0,97,0.00,,,0.00,,2013-08-20 08:11:00,
2013-08-20 04:22:00,64.0,63.0,-100.00,NW,320,5.0,8.0,96,0.00,,,0.00,,2013-08-20 08:22:00,
2013-08-20 04:42:00,65.0,63.0,-100.00,NW,320,3.0,6.0,96,0.00,,,0.00,,2013-08-20 08:42:00,
2013-08-20 04:52:00,65.0,64.0,-100.00,NNW,330,4.0,7.0,97,0.00,,,0.00,,2013-08-20 08:52:00,
2013-08-20 05:11:00,65.0,64.0,-100.00,NW,320,3.0,8.0,97,0.00,,,0.00,,2013-08-20 09:11:00,
2013-08-20 05:21:00,64.0,63.0,-100.00,NW,322,3.0,6.0,97,0.00,,,0.00,,2013-08-20 09:21:00,
2013-08-20 05:42:00,64.0,63.0,-100.00,NW,313,5.0,7.0,97,0.00,,,0.00,,2013-08-20 09:42:00,
2013-08-20 05:53:00,64.0,63.0,-100.00,NW,320,3.0,7.0,97,0.00,,,0.00,,2013-08-20 09:53:00,
2013-08-20 06:12:00,64.0,63.0,-100.00,NNW,328,2.0,4.0,97,0.00,,,0.00,,2013-08-20 10:12:00,
2013-08-20 06:23:00,64.0,63.0,-100.00,NNW,329,2.0,6.0,97,0.00,,,0.00,,2013-08-20 10:23:00,
2013-08-20 06:42:00,64.0,63.0,-100.00,NW,320,4.0,7.0,97,0.00,,,0.00,,2013-08-20 10:42:00,
2013-08-20 06:52:00,63.0,62.0,-100.00,NNW,332,4.0,8.0,97,0.00,,,0.00,,2013-08-20 10:52:00,
2013-08-20 07:11:00,63.0,62.0,-100.00,NNW,330,3.0,8.0,97,0.00,,,0.00,,2013-08-20 11:11:00,
2013-08-20 07:22:00,63.0,62.0,-100.00,NW,325,4.0,10.0,97,0.00,,,0.00,,2013-08-20 11:22:00,
2013-08-20 07:42:00,63.0,62.0,-100.00,NW,320,5.0,9.0,97,0.00,,,0.00,,2013-08-20 11:42:00,
2013-08-20 07:52:00,63.0,63.0,-100.00,NNW,329,3.0,8.0,97,0.00,,,0.00,,2013-08-20 11:52:00,
2013-08-20 08:12:00,64.0,63.0,-100.00,NNW,332,3.0,7.0,97,0.00,,,0.00,,2013-08-20 12:12:00,
2013-08-20 08:21:00,65.0,64.0,-100.00,NNW,330,3.0,6.0,97,0.00,,,0.00,,2013-08-20 12:21:00,
2013-08-20 08:42:00,64.0,63.0,-100.00,NNW,328,3.0,6.0,97,0.00,,,0.00,,2013-08-20 12:42:00,
2013-08-20 08:52:00,65.0,64.0,-100.00,NNW,328,4.0,9.0,97,0.00,,,0.00,,2013-08-20 12:52:00,
2013-08-20 09:11:00,65.0,64.0,-100.00,NNW,329,3.0,7.0,97,0.00,,,0.00,,2013-08-20 13:11:00,
2013-08-20 09:22:00,66.0,65.0,-100.00,NW,322,3.0,6.0,97,0.00,,,0.00,,2013-08-20 13:22:00,
2013-08-20 09:42:00,66.0,66.0,-100.00,NNW,330,2.0,5.0,97,0.00,,,0.00,,2013-08-20 13:42:00,
2013-08-20 09:52:00,68.0,67.0,-100.00,NW,323,4.0,8.0,97,0.00,,,0.00,,2013-08-20 13:52:00,
2013-08-20 10:11:00,69.0,67.0,-100.00,NNW,330,4.0,7.0,93,0.00,,,0.00,,2013-08-20 14:11:00,
2013-08-20 10:22:00,71.0,67.0,-100.00,NNW,330,3.0,6.0,89,0.00,,,0.00,,2013-08-20 14:22:00,
2013-08-20 10:42:00,72.0,67.0,-100.00,NW,325,4.0,8.0,85,0.00,,,0.00,,2013-08-20 14:42:00,
2013-08-20 10:52:00,74.0,68.0,-100.00,NNW,336,2.0,7.0,82,0.00,,,0.00,,2013-08-20 14:52:00,
2013-08-20 11:11:00,74.0,67.0,-100.00,NNW,332,3.0,7.0,80,0.00,,,0.00,,2013-08-20 15:11:00,
2013-08-20 11:22:00,73.0,66.0,-100.00,NW,312,5.0,9.0,79,0.00,,,0.00,,2013-08-20 15:22:00,
2013-08-20 11:43:00,73.0,67.0,-100.00,NW,311,6.0,9.0,80,0.00,,,0.00,,2013-08-20 15:43:00,
2013-08-20 11:54:00,74.0,66.0,-100.00,NW,306,8.0,11.0,78,0.00,,,0.00,,2013-08-20 15:54:00,
2013-08-20 12:15:00,76.0,67.0,-100.00,NW,311,5.0,10.0,74,0.00,,,0.00,,2013-08-20 16:15:00,
2013-08-20 12:30:00,-999.0,-99.9,-100.00,NW,316,4.0,8.0,69,0.00,,,0.00,,2013-08-20 16:30:00,
2013-08-20 12:42:00,77.0,65.0,-100.00,WNW,299,4.0,8.0,68,0.00,,,0.00,,2013-08-20 16:42:00,
2013-08-20 12:53:00,77.0,66.0,-100.00,NW,312,4.0,10.0,68,0.00,,,0.00,,2013-08-20 16:53:00,
2013-08-20 13:12:00,79.0,65.0,-100.00,WNW,288,3.0,7.0,61,0.00,,,0.00,,2013-08-20 17:12:00,
2013-08-20 13:24:00,79.0,66.0,-100.00,NW,320,3.0,6.0,65,0.00,,,0.00,,2013-08-20 17:24:00,
2013-08-20 13:43:00,79.0,65.0,-100.00,West,274,3.0,7.0,61,0.00,,,0.00,,2013-08-20 17:43:00,
2013-08-20 13:52:00,80.0,65.0,-100.00,NW,323,4.0,8.0,61,0.00,,,0.00,,2013-08-20 17:52:00,
2013-08-20 14:12:00,82.0,64.0,-100.00,NW,318,2.0,5.0,54,0.00,,,0.00,,2013-08-20 18:12:00,
2013-08-20 14:22:00,83.0,64.0,-100.00,NNW,333,2.0,6.0,54,0.00,,,0.00,,2013-08-20 18:22:00,
2013-08-20 14:43:00,80.0,63.0,-100.00,NW,315,4.0,10.0,56,0.00,,,0.00,,2013-08-20 18:43:00,
2013-08-20 14:52:00,81.0,65.0,-100.00,NW,312,5.0,9.0,58,0.00,,,0.00,,2013-08-20 18:52:00,
2013-08-20 15:11:00,81.0,65.0,-100.00,NW,308,5.0,9.0,57,0.00,,,0.00,,2013-08-20 19:11:00,
2013-08-20 15:22:00,81.0,64.0,-100.00,WNW,298,3.0,7.0,55,0.00,,,0.00,,2013-08-20 19:22:00,
2013-08-20 15:42:00,84.0,62.0,-100.00,ENE,64,2.0,4.0,48,0.00,,,0.00,,2013-08-20 19:42:00,
2013-08-20 15:53:00,82.0,61.0,-100.00,NW,318,3.0,6.0,50,0.00,,,0.00,,2013-08-20 19:53:00,
2013-08-20 16:12:00,80.0,65.0,-100.00,SSE,162,2.0,6.0,59,0.00,,,0.00,,2013-08-20 20:12:00,
2013-08-20 16:22:00,80.0,64.0,-100.00,SSE,165,2.0,4.0,57,0.00,,,0.00,,2013-08-20 20:22:00,
2013-08-20 16:42:00,81.0,63.0,-100.00,SSE,167,2.0,5.0,53,0.00,,,0.00,,2013-08-20 20:42:00,
2013-08-20 16:52:00,81.0,65.0,-100.00,SE,141,1.0,4.0,59,0.00,,,0.00,,2013-08-20 20:52:00,
2013-08-20 17:11:00,81.0,69.0,-100.00,SW,215,1.0,3.0,67,0.00,,,0.00,,2013-08-20 21:11:00,
2013-08-20 17:22:00,79.0,68.0,-100.00,NNW,340,0.0,0.0,68,0.00,,,0.00,,2013-08-20 21:22:00,
2013-08-20 17:44:00,81.0,67.0,-100.00,NW,311,1.0,2.0,62,0.00,,,0.00,,2013-08-20 21:44:00,
2013-08-20 17:55:00,81.0,65.0,-100.00,SE,138,2.0,5.0,58,0.00,,,0.00,,2013-08-20 21:55:00,
2013-08-20 18:14:00,80.0,65.0,-100.00,SSE,147,3.0,5.0,60,0.00,,,0.00,,2013-08-20 22:14:00,
2013-08-20 18:24:00,81.0,65.0,-100.00,SSE,150,3.0,5.0,59,0.00,,,0.00,,2013-08-20 22:24:00,
2013-08-20 18:42:00,81.0,66.0,-100.00,South,175,1.0,2.0,60,0.00,,,0.00,,2013-08-20 22:42:00,
2013-08-20 18:54:00,81.0,66.0,-100.00,SE,145,2.0,3.0,60,0.00,,,0.00,,2013-08-20 22:54:00,
2013-08-20 19:12:00,79.0,68.0,-100.00,South,171,1.0,3.0,67,0.00,,,0.00,,2013-08-20 23:12:00,
2013-08-20 19:22:00,78.0,69.0,-100.00,ESE,121,0.0,3.0,72,0.00,,,0.00,,2013-08-20 23:22:00,
2013-08-20 19:53:00,77.0,69.0,-100.00,East,93,0.0,1.0,76,0.00,,,0.00,,2013-08-20 23:53:00,
2013-08-20 20:12:00,76.0,69.0,-100.00,East,93,0.0,0.0,79,0.00,,,0.00,,2013-08-21 00:12:00,
2013-08-20 20:23:00,74.0,68.0,-100.00,East,93,0.0,0.0,82,0.00,,,0.00,,2013-08-21 00:23:00,
2013-08-20 20:42:00,73.0,68.0,-100.00,East,90,0.0,1.0,84,0.00,,,0.00,,2013-08-21 00:42:00,
2013-08-20 21:11:00,72.0,68.0,-100.00,East,86,0.0,0.0,86,0.00,,,0.00,,2013-08-21 01:11:00,
2013-08-20 21:22:00,72.0,68.0,-100.00,East,86,0.0,0.0,87,0.00,,,0.00,,2013-08-21 01:22:00,
2013-08-20 21:42:00,72.0,68.0,-100.00,East,86,0.0,0.0,87,0.00,,,0.00,,2013-08-21 01:42:00,
2013-08-20 21:52:00,72.0,68.0,-100.00,East,86,0.0,0.0,87,0.00,,,0.00,,2013-08-21 01:52:00,
2013-08-20 22:12:00,72.0,68.0,-100.00,East,86,0.0,0.0,88,0.00,,,0.00,,2013-08-21 02:12:00,
2013-08-20 22:22:00,71.0,68.0,-100.00,East,86,0.0,1.0,89,0.00,,,0.00,,2013-08-21 02:22:00,
2013-08-20 22:42:00,72.0,68.0,-100.00,SE,126,1.0,3.0,89,0.00,,,0.00,,2013-08-21 02:42:00,
2013-08-20 23:12:00,71.0,68.0,-100.00,SE,128,2.0,3.0,90,0.00,,,0.00,,2013-08-21 03:12:00,
2013-08-20 23:23:00,71.0,68.0,-100.00,SE,133,2.0,4.0,90,0.00,,,0.00,,2013-08-21 03:23:00,
2013-08-20 23:44:00,71.0,68.0,-100.00,SE,134,1.0,2.0,91,0.00,,,0.00,,2013-08-21 03:44:00,
2013-08-20 23:55:00,71.0,68.0,-100.00,SE,136,2.0,3.0,91,0.00,,,0.00,,2013-08-21 03:55:00,